Spencer, North Carolina
Current Conditions -  °F | °C
As of 1:55 PM on Thursday 30 Oct 2014 (Local Time) from KRUQ Reporting Station
Clear Clear  
Wind Chill: 62°   Ceiling: Unl
Heat Index: 62°   Visibility: 10mi
Dew Point: 38°   Wind: 5mph
Humidity: 41%   Direction: 360°N
Pressure: 30.02"   Gusts: NA
Location:  35.69°N, 80.43°W
Report Text: KRUQ 301755Z AUTO 36004KT 10SM CLR 17/04 A3002 RMK AO2 T01690036 10173 20057
Loading
Personal Weather Stations






























Interactive Weather Map
Tropical Storm Tracking
New forecast layout! Learn more

10-Day Weather Forecast

Advertisements
Track Severe Weather on mobile